sensor_id;sensor_type;location;lat;lon;timestamp;temperature;humidity
4811;DHT22;2419;51.276;6.472;2023-07-29T00:02:15;18.30;99.90
4811;DHT22;2419;51.276;6.472;2023-07-29T00:04:43;18.20;99.90
4811;DHT22;2419;51.276;6.472;2023-07-29T00:07:11;18.10;99.90
4811;DHT22;2419;51.276;6.472;2023-07-29T00:09:39;18.00;99.90
4811;DHT22;2419;51.276;6.472;2023-07-29T00:12:07;18.20;99.90
4811;DHT22;2419;51.276;6.472;2023-07-29T00:14:35;18.20;99.90
4811;DHT22;2419;51.276;6.472;2023-07-29T00:17:04;18.20;99.90
4811;DHT22;2419;51.276;6.472;2023-07-29T00:19:33;18.20;99.90
4811;DHT22;2419;51.276;6.472;2023-07-29T00:22:01;18.20;99.90
4811;DHT22;2419;51.276;6.472;2023-07-29T00:24:29;18.20;99.90
4811;DHT22;2419;51.276;6.472;2023-07-29T00:26:57;18.30;99.90
4811;DHT22;2419;51.276;6.472;2023-07-29T00:29:26;18.20;99.90
4811;DHT22;2419;51.276;6.472;2023-07-29T00:31:54;18.10;99.90
4811;DHT22;2419;51.276;6.472;2023-07-29T00:34:22;18.20;99.90
4811;DHT22;2419;51.276;6.472;2023-07-29T00:36:52;18.20;99.90
4811;DHT22;2419;51.276;6.472;2023-07-29T00:39:19;18.20;99.90
4811;DHT22;2419;51.276;6.472;2023-07-29T00:41:47;18.30;99.90
4811;DHT22;2419;51.276;6.472;2023-07-29T00:44:16;18.30;99.90
4811;DHT22;2419;51.276;6.472;2023-07-29T00:46:46;18.30;99.90
4811;DHT22;2419;51.276;6.472;2023-07-29T00:49:14;18.30;99.90
4811;DHT22;2419;51.276;6.472;2023-07-29T00:51:42;18.30;99.90
4811;DHT22;2419;51.276;6.472;2023-07-29T00:54:11;18.30;99.90
4811;DHT22;2419;51.276;6.472;2023-07-29T00:56:40;18.30;99.90
4811;DHT22;2419;51.276;6.472;2023-07-29T00:59:08;18.20;99.90
4811;DHT22;2419;51.276;6.472;2023-07-29T01:01:37;18.20;99.90
4811;DHT22;2419;51.276;6.472;2023-07-29T01:04:06;18.30;99.90
4811;DHT22;2419;51.276;6.472;2023-07-29T01:06:41;18.30;99.90
4811;DHT22;2419;51.276;6.472;2023-07-29T01:09:23;18.30;99.90
4811;DHT22;2419;51.276;6.472;2023-07-29T01:12:05;18.40;99.90
4811;DHT22;2419;51.276;6.472;2023-07-29T01:14:38;18.40;99.90
4811;DHT22;2419;51.276;6.472;2023-07-29T01:17:13;18.40;99.90
4811;DHT22;2419;51.276;6.472;2023-07-29T01:19:48;18.40;99.90
4811;DHT22;2419;51.276;6.472;2023-07-29T01:22:16;18.40;99.90
4811;DHT22;2419;51.276;6.472;2023-07-29T01:24:47;18.40;99.90
4811;DHT22;2419;51.276;6.472;2023-07-29T01:27:16;18.40;99.90
4811;DHT22;2419;51.276;6.472;2023-07-29T01:29:44;18.50;99.90
4811;DHT22;2419;51.276;6.472;2023-07-29T01:32:19;18.50;99.90
4811;DHT22;2419;51.276;6.472;2023-07-29T01:34:51;18.40;99.90
4811;DHT22;2419;51.276;6.472;2023-07-29T01:37:26;18.40;99.90
4811;DHT22;2419;51.276;6.472;2023-07-29T01:39:57;18.50;99.90
4811;DHT22;2419;51.276;6.472;2023-07-29T01:42:28;18.60;99.90
4811;DHT22;2419;51.276;6.472;2023-07-29T01:44:57;18.60;99.90
4811;DHT22;2419;51.276;6.472;2023-07-29T01:47:25;18.60;99.90
4811;DHT22;2419;51.276;6.472;2023-07-29T01:49:54;18.60;99.90
4811;DHT22;2419;51.276;6.472;2023-07-29T01:52:22;18.60;99.90
4811;DHT22;2419;51.276;6.472;2023-07-29T01:54:50;18.70;99.90
4811;DHT22;2419;51.276;6.472;2023-07-29T01:57:20;18.60;99.90
4811;DHT22;2419;51.276;6.472;2023-07-29T01:59:48;18.60;99.90
4811;DHT22;2419;51.276;6.472;2023-07-29T02:02:16;18.60;99.90
4811;DHT22;2419;51.276;6.472;2023-07-29T02:04:44;18.60;99.90
4811;DHT22;2419;51.276;6.472;2023-07-29T02:07:18;18.60;99.90
4811;DHT22;2419;51.276;6.472;2023-07-29T02:09:46;18.50;99.90
4811;DHT22;2419;51.276;6.472;2023-07-29T02:12:14;18.50;99.90
4811;DHT22;2419;51.276;6.472;2023-07-29T02:14:43;18.50;99.90
4811;DHT22;2419;51.276;6.472;2023-07-29T02:17:11;18.50;99.90
4811;DHT22;2419;51.276;6.472;2023-07-29T02:19:39;18.50;99.90
4811;DHT22;2419;51.276;6.472;2023-07-29T02:22:07;18.50;99.90
4811;DHT22;2419;51.276;6.472;2023-07-29T02:24:35;18.50;99.90
4811;DHT22;2419;51.276;6.472;2023-07-29T02:27:04;18.50;99.90
4811;DHT22;2419;51.276;6.472;2023-07-29T02:29:32;18.50;99.90
4811;DHT22;2419;51.276;6.472;2023-07-29T02:32:02;18.50;99.90
4811;DHT22;2419;51.276;6.472;2023-07-29T02:34:30;18.50;99.90
4811;DHT22;2419;51.276;6.472;2023-07-29T02:37:00;18.50;99.90
4811;DHT22;2419;51.276;6.472;2023-07-29T02:39:28;18.50;99.90
4811;DHT22;2419;51.276;6.472;2023-07-29T02:41:56;18.50;99.90
4811;DHT22;2419;51.276;6.472;2023-07-29T02:44:25;18.50;99.90
4811;DHT22;2419;51.276;6.472;2023-07-29T02:46:53;18.50;99.90
4811;DHT22;2419;51.276;6.472;2023-07-29T02:49:24;18.50;99.90
4811;DHT22;2419;51.276;6.472;2023-07-29T02:51:52;18.50;99.90
4811;DHT22;2419;51.276;6.472;2023-07-29T02:54:20;18.50;99.90
4811;DHT22;2419;51.276;6.472;2023-07-29T02:56:50;18.50;99.90
4811;DHT22;2419;51.276;6.472;2023-07-29T02:59:18;18.60;99.90
4811;DHT22;2419;51.276;6.472;2023-07-29T03:01:46;18.60;99.90
4811;DHT22;2419;51.276;6.472;2023-07-29T03:04:14;18.60;99.90
4811;DHT22;2419;51.276;6.472;2023-07-29T03:06:44;18.60;99.90
4811;DHT22;2419;51.276;6.472;2023-07-29T03:09:12;18.60;99.90
4811;DHT22;2419;51.276;6.472;2023-07-29T03:11:40;18.70;99.90
4811;DHT22;2419;51.276;6.472;2023-07-29T03:14:08;18.60;99.90
4811;DHT22;2419;51.276;6.472;2023-07-29T03:16:36;18.70;99.90
4811;DHT22;2419;51.276;6.472;2023-07-29T03:19:04;18.60;99.90
4811;DHT22;2419;51.276;6.472;2023-07-29T03:21:33;18.70;99.90
4811;DHT22;2419;51.276;6.472;2023-07-29T03:24:02;18.60;99.90
4811;DHT22;2419;51.276;6.472;2023-07-29T03:26:30;18.70;99.90
4811;DHT22;2419;51.276;6.472;2023-07-29T03:28:59;18.70;99.90
4811;DHT22;2419;51.276;6.472;2023-07-29T03:31:27;18.60;99.90
4811;DHT22;2419;51.276;6.472;2023-07-29T03:33:55;18.60;99.90
4811;DHT22;2419;51.276;6.472;2023-07-29T03:36:23;18.60;99.90
4811;DHT22;2419;51.276;6.472;2023-07-29T03:38:52;18.60;99.90
4811;DHT22;2419;51.276;6.472;2023-07-29T03:41:22;18.50;99.90
4811;DHT22;2419;51.276;6.472;2023-07-29T03:43:50;18.40;99.90
4811;DHT22;2419;51.276;6.472;2023-07-29T03:46:18;18.40;99.90
4811;DHT22;2419;51.276;6.472;2023-07-29T03:48:48;18.40;99.90
4811;DHT22;2419;51.276;6.472;2023-07-29T03:51:16;18.40;99.90
4811;DHT22;2419;51.276;6.472;2023-07-29T03:53:45;18.40;99.90
4811;DHT22;2419;51.276;6.472;2023-07-29T03:56:13;18.30;99.90
4811;DHT22;2419;51.276;6.472;2023-07-29T03:58:43;18.20;99.90
4811;DHT22;2419;51.276;6.472;2023-07-29T04:01:11;18.10;99.90
4811;DHT22;2419;51.276;6.472;2023-07-29T04:03:40;18.10;99.90
4811;DHT22;2419;51.276;6.472;2023-07-29T04:06:08;18.10;99.90
4811;DHT22;2419;51.276;6.472;2023-07-29T04:08:36;18.00;99.90
4811;DHT22;2419;51.276;6.472;2023-07-29T04:11:04;18.00;99.90
4811;DHT22;2419;51.276;6.472;2023-07-29T04:13:32;18.00;99.90
4811;DHT22;2419;51.276;6.472;2023-07-29T04:16:02;18.00;99.90
4811;DHT22;2419;51.276;6.472;2023-07-29T04:18:30;18.00;99.90
4811;DHT22;2419;51.276;6.472;2023-07-29T04:20:58;18.00;99.90
4811;DHT22;2419;51.276;6.472;2023-07-29T04:23:26;18.00;99.90
4811;DHT22;2419;51.276;6.472;2023-07-29T04:25:54;18.00;99.90
4811;DHT22;2419;51.276;6.472;2023-07-29T04:28:22;18.00;99.90
4811;DHT22;2419;51.276;6.472;2023-07-29T04:30:50;18.00;99.90
4811;DHT22;2419;51.276;6.472;2023-07-29T04:33:20;17.90;99.90
4811;DHT22;2419;51.276;6.472;2023-07-29T04:35:48;17.90;99.90
4811;DHT22;2419;51.276;6.472;2023-07-29T04:38:16;17.90;99.90
4811;DHT22;2419;51.276;6.472;2023-07-29T04:40:44;17.90;99.90
4811;DHT22;2419;51.276;6.472;2023-07-29T04:43:13;17.90;99.90
4811;DHT22;2419;51.276;6.472;2023-07-29T04:45:42;17.90;99.90
4811;DHT22;2419;51.276;6.472;2023-07-29T04:48:11;17.90;99.90
4811;DHT22;2419;51.276;6.472;2023-07-29T04:50:40;17.90;99.90
4811;DHT22;2419;51.276;6.472;2023-07-29T04:53:08;17.90;99.90
4811;DHT22;2419;51.276;6.472;2023-07-29T04:55:36;17.80;99.90
4811;DHT22;2419;51.276;6.472;2023-07-29T04:58:04;17.80;99.90
4811;DHT22;2419;51.276;6.472;2023-07-29T05:00:32;17.80;99.90
4811;DHT22;2419;51.276;6.472;2023-07-29T05:03:02;17.80;99.90
4811;DHT22;2419;51.276;6.472;2023-07-29T05:05:31;17.80;99.90
4811;DHT22;2419;51.276;6.472;2023-07-29T05:08:00;17.80;99.90
4811;DHT22;2419;51.276;6.472;2023-07-29T05:10:28;17.80;99.90
4811;DHT22;2419;51.276;6.472;2023-07-29T05:12:56;17.70;99.90
4811;DHT22;2419;51.276;6.472;2023-07-29T05:15:24;17.80;99.90
4811;DHT22;2419;51.276;6.472;2023-07-29T05:17:52;17.80;99.90
4811;DHT22;2419;51.276;6.472;2023-07-29T05:20:20;17.90;99.90
4811;DHT22;2419;51.276;6.472;2023-07-29T05:22:48;17.90;99.90
4811;DHT22;2419;51.276;6.472;2023-07-29T05:25:18;17.80;99.90
4811;DHT22;2419;51.276;6.472;2023-07-29T05:27:46;17.80;99.90
4811;DHT22;2419;51.276;6.472;2023-07-29T05:30:14;17.80;99.90
4811;DHT22;2419;51.276;6.472;2023-07-29T05:32:42;17.80;99.90
4811;DHT22;2419;51.276;6.472;2023-07-29T05:35:11;17.80;99.90
4811;DHT22;2419;51.276;6.472;2023-07-29T05:37:39;17.80;99.90
4811;DHT22;2419;51.276;6.472;2023-07-29T05:40:08;17.80;99.90
4811;DHT22;2419;51.276;6.472;2023-07-29T05:42:39;17.80;99.90
4811;DHT22;2419;51.276;6.472;2023-07-29T05:45:08;17.80;99.90
4811;DHT22;2419;51.276;6.472;2023-07-29T05:47:36;17.80;99.90
4811;DHT22;2419;51.276;6.472;2023-07-29T05:50:05;17.80;99.90
4811;DHT22;2419;51.276;6.472;2023-07-29T05:52:34;17.80;99.90
4811;DHT22;2419;51.276;6.472;2023-07-29T05:55:02;17.80;99.90
4811;DHT22;2419;51.276;6.472;2023-07-29T05:57:31;17.80;99.90
4811;DHT22;2419;51.276;6.472;2023-07-29T06:00:00;17.80;99.90
4811;DHT22;2419;51.276;6.472;2023-07-29T06:02:38;17.80;99.90
4811;DHT22;2419;51.276;6.472;2023-07-29T06:05:10;17.80;99.90
4811;DHT22;2419;51.276;6.472;2023-07-29T06:07:38;17.80;99.90
4811;DHT22;2419;51.276;6.472;2023-07-29T06:10:13;17.80;99.90
4811;DHT22;2419;51.276;6.472;2023-07-29T06:12:44;17.80;99.90
4811;DHT22;2419;51.276;6.472;2023-07-29T06:15:14;17.90;99.90
4811;DHT22;2419;51.276;6.472;2023-07-29T06:17:42;17.80;99.90
4811;DHT22;2419;51.276;6.472;2023-07-29T06:20:10;17.90;99.90
4811;DHT22;2419;51.276;6.472;2023-07-29T06:22:38;17.90;99.90
4811;DHT22;2419;51.276;6.472;2023-07-29T06:25:07;17.80;99.90
4811;DHT22;2419;51.276;6.472;2023-07-29T06:27:35;17.90;99.90
4811;DHT22;2419;51.276;6.472;2023-07-29T06:30:04;18.00;99.90
4811;DHT22;2419;51.276;6.472;2023-07-29T06:32:34;18.10;99.90
4811;DHT22;2419;51.276;6.472;2023-07-29T06:35:02;18.20;99.90
4811;DHT22;2419;51.276;6.472;2023-07-29T06:37:30;18.30;99.90
4811;DHT22;2419;51.276;6.472;2023-07-29T06:40:00;18.40;99.90
4811;DHT22;2419;51.276;6.472;2023-07-29T06:42:28;18.40;99.90
4811;DHT22;2419;51.276;6.472;2023-07-29T06:44:56;18.50;99.90
4811;DHT22;2419;51.276;6.472;2023-07-29T06:47:24;18.60;99.90
4811;DHT22;2419;51.276;6.472;2023-07-29T06:49:54;18.70;99.90
4811;DHT22;2419;51.276;6.472;2023-07-29T06:52:22;18.60;99.90
4811;DHT22;2419;51.276;6.472;2023-07-29T06:54:50;18.70;99.90
4811;DHT22;2419;51.276;6.472;2023-07-29T06:57:18;18.70;99.90
4811;DHT22;2419;51.276;6.472;2023-07-29T06:59:46;18.80;99.90
4811;DHT22;2419;51.276;6.472;2023-07-29T07:02:15;18.90;99.90
4811;DHT22;2419;51.276;6.472;2023-07-29T07:04:45;19.00;99.90
4811;DHT22;2419;51.276;6.472;2023-07-29T07:07:20;19.10;99.90
4811;DHT22;2419;51.276;6.472;2023-07-29T07:09:48;19.20;99.90
4811;DHT22;2419;51.276;6.472;2023-07-29T07:12:17;19.20;99.90
4811;DHT22;2419;51.276;6.472;2023-07-29T07:14:45;19.40;99.90
4811;DHT22;2419;51.276;6.472;2023-07-29T07:17:13;19.70;99.90
4811;DHT22;2419;51.276;6.472;2023-07-29T07:19:41;19.70;99.90
4811;DHT22;2419;51.276;6.472;2023-07-29T07:22:09;19.80;99.90
4811;DHT22;2419;51.276;6.472;2023-07-29T07:24:40;19.90;99.90
4811;DHT22;2419;51.276;6.472;2023-07-29T07:27:08;20.10;99.90
4811;DHT22;2419;51.276;6.472;2023-07-29T07:29:36;20.00;99.90
4811;DHT22;2419;51.276;6.472;2023-07-29T07:32:04;20.20;99.90
4811;DHT22;2419;51.276;6.472;2023-07-29T07:34:32;20.20;99.90
4811;DHT22;2419;51.276;6.472;2023-07-29T07:37:01;20.20;99.90
4811;DHT22;2419;51.276;6.472;2023-07-29T07:39:31;20.10;99.90
4811;DHT22;2419;51.276;6.472;2023-07-29T07:42:00;19.90;99.90
4811;DHT22;2419;51.276;6.472;2023-07-29T07:44:28;19.90;99.90
4811;DHT22;2419;51.276;6.472;2023-07-29T07:46:56;19.70;99.90
4811;DHT22;2419;51.276;6.472;2023-07-29T07:49:24;19.50;99.90
4811;DHT22;2419;51.276;6.472;2023-07-29T07:51:52;19.50;99.90
4811;DHT22;2419;51.276;6.472;2023-07-29T07:54:20;19.70;99.90
4811;DHT22;2419;51.276;6.472;2023-07-29T07:56:48;19.80;99.90
4811;DHT22;2419;51.276;6.472;2023-07-29T07:59:18;19.80;99.90
4811;DHT22;2419;51.276;6.472;2023-07-29T08:01:46;20.00;99.90
4811;DHT22;2419;51.276;6.472;2023-07-29T08:04:14;20.00;99.90
4811;DHT22;2419;51.276;6.472;2023-07-29T08:06:42;20.10;99.90
4811;DHT22;2419;51.276;6.472;2023-07-29T08:09:10;20.20;99.90
4811;DHT22;2419;51.276;6.472;2023-07-29T08:11:38;20.20;99.90
4811;DHT22;2419;51.276;6.472;2023-07-29T08:14:06;20.40;99.90
4811;DHT22;2419;51.276;6.472;2023-07-29T08:16:36;20.50;99.90
4811;DHT22;2419;51.276;6.472;2023-07-29T08:19:04;20.60;99.90
4811;DHT22;2419;51.276;6.472;2023-07-29T08:21:33;20.70;99.90
4811;DHT22;2419;51.276;6.472;2023-07-29T08:24:02;20.80;99.90
4811;DHT22;2419;51.276;6.472;2023-07-29T08:26:30;20.80;99.90
4811;DHT22;2419;51.276;6.472;2023-07-29T08:28:58;20.90;99.90
4811;DHT22;2419;51.276;6.472;2023-07-29T08:31:26;21.10;99.90
4811;DHT22;2419;51.276;6.472;2023-07-29T08:33:55;21.10;99.90
4811;DHT22;2419;51.276;6.472;2023-07-29T08:36:23;21.10;99.90
4811;DHT22;2419;51.276;6.472;2023-07-29T08:38:51;21.20;99.90
4811;DHT22;2419;51.276;6.472;2023-07-29T08:41:24;21.30;99.90
4811;DHT22;2419;51.276;6.472;2023-07-29T08:43:58;21.00;99.90
4811;DHT22;2419;51.276;6.472;2023-07-29T08:46:28;21.10;99.90
4811;DHT22;2419;51.276;6.472;2023-07-29T08:48:57;21.00;99.90
4811;DHT22;2419;51.276;6.472;2023-07-29T08:51:29;21.10;99.90
4811;DHT22;2419;51.276;6.472;2023-07-29T08:53:59;21.10;99.90
4811;DHT22;2419;51.276;6.472;2023-07-29T08:56:27;20.90;99.90
4811;DHT22;2419;51.276;6.472;2023-07-29T08:58:57;20.90;99.90
4811;DHT22;2419;51.276;6.472;2023-07-29T09:01:27;20.80;99.90
4811;DHT22;2419;51.276;6.472;2023-07-29T09:03:59;20.70;99.90
4811;DHT22;2419;51.276;6.472;2023-07-29T09:06:27;20.50;99.90
4811;DHT22;2419;51.276;6.472;2023-07-29T09:08:55;20.50;99.90
4811;DHT22;2419;51.276;6.472;2023-07-29T09:11:24;20.50;99.90
4811;DHT22;2419;51.276;6.472;2023-07-29T09:13:52;20.40;99.90
4811;DHT22;2419;51.276;6.472;2023-07-29T09:16:21;20.30;99.90
4811;DHT22;2419;51.276;6.472;2023-07-29T09:18:49;20.30;99.90
4811;DHT22;2419;51.276;6.472;2023-07-29T09:21:23;20.40;99.90
4811;DHT22;2419;51.276;6.472;2023-07-29T09:23:51;20.60;99.90
4811;DHT22;2419;51.276;6.472;2023-07-29T09:26:22;20.90;99.90
4811;DHT22;2419;51.276;6.472;2023-07-29T09:28:52;21.00;99.90
4811;DHT22;2419;51.276;6.472;2023-07-29T09:31:21;21.20;99.90
4811;DHT22;2419;51.276;6.472;2023-07-29T09:33:50;21.40;99.90
4811;DHT22;2419;51.276;6.472;2023-07-29T09:36:21;21.60;99.90
4811;DHT22;2419;51.276;6.472;2023-07-29T09:38:52;21.70;99.90
4811;DHT22;2419;51.276;6.472;2023-07-29T09:41:22;21.90;99.90
4811;DHT22;2419;51.276;6.472;2023-07-29T09:43:56;22.00;99.90
4811;DHT22;2419;51.276;6.472;2023-07-29T09:46:27;22.30;99.90
4811;DHT22;2419;51.276;6.472;2023-07-29T09:48:59;22.00;99.90
4811;DHT22;2419;51.276;6.472;2023-07-29T09:51:28;21.90;99.90
4811;DHT22;2419;51.276;6.472;2023-07-29T09:53:56;21.90;99.90
4811;DHT22;2419;51.276;6.472;2023-07-29T09:56:26;22.20;99.90
4811;DHT22;2419;51.276;6.472;2023-07-29T09:58:56;22.20;99.90
4811;DHT22;2419;51.276;6.472;2023-07-29T10:01:24;22.10;99.90
4811;DHT22;2419;51.276;6.472;2023-07-29T10:03:53;22.20;99.90
4811;DHT22;2419;51.276;6.472;2023-07-29T10:06:23;22.30;99.90
4811;DHT22;2419;51.276;6.472;2023-07-29T10:08:53;22.30;99.90
4811;DHT22;2419;51.276;6.472;2023-07-29T10:11:22;22.10;99.90
4811;DHT22;2419;51.276;6.472;2023-07-29T10:13:51;22.20;99.90
4811;DHT22;2419;51.276;6.472;2023-07-29T10:16:34;21.80;99.90
4811;DHT22;2419;51.276;6.472;2023-07-29T10:19:04;21.80;99.90
4811;DHT22;2419;51.276;6.472;2023-07-29T10:21:34;21.90;99.90
4811;DHT22;2419;51.276;6.472;2023-07-29T10:24:07;21.60;99.90
4811;DHT22;2419;51.276;6.472;2023-07-29T10:26:39;22.00;99.90
4811;DHT22;2419;51.276;6.472;2023-07-29T10:29:12;22.20;99.90
4811;DHT22;2419;51.276;6.472;2023-07-29T10:31:43;22.50;99.90
4811;DHT22;2419;51.276;6.472;2023-07-29T10:34:11;22.40;99.90
4811;DHT22;2419;51.276;6.472;2023-07-29T10:36:40;22.50;99.90
4811;DHT22;2419;51.276;6.472;2023-07-29T10:39:10;22.50;99.90
4811;DHT22;2419;51.276;6.472;2023-07-29T10:41:56;22.20;99.90
4811;DHT22;2419;51.276;6.472;2023-07-29T10:44:48;22.10;99.90
4811;DHT22;2419;51.276;6.472;2023-07-29T10:47:19;21.80;99.90
4811;DHT22;2419;51.276;6.472;2023-07-29T10:49:50;21.70;99.90
4811;DHT22;2419;51.276;6.472;2023-07-29T10:52:31;21.70;99.90
4811;DHT22;2419;51.276;6.472;2023-07-29T10:55:24;21.50;99.90
4811;DHT22;2419;51.276;6.472;2023-07-29T10:57:54;21.50;99.90
4811;DHT22;2419;51.276;6.472;2023-07-29T11:00:31;21.50;99.90
4811;DHT22;2419;51.276;6.472;2023-07-29T11:03:01;21.40;99.90
4811;DHT22;2419;51.276;6.472;2023-07-29T11:05:47;21.40;99.90
4811;DHT22;2419;51.276;6.472;2023-07-29T11:08:20;21.50;99.90
4811;DHT22;2419;51.276;6.472;2023-07-29T11:11:04;22.00;99.90
4811;DHT22;2419;51.276;6.472;2023-07-29T11:13:34;22.70;99.90
4811;DHT22;2419;51.276;6.472;2023-07-29T11:16:03;23.30;99.90
4811;DHT22;2419;51.276;6.472;2023-07-29T11:18:32;23.40;99.90
4811;DHT22;2419;51.276;6.472;2023-07-29T11:21:02;23.90;99.90
4811;DHT22;2419;51.276;6.472;2023-07-29T11:23:31;23.60;99.90
4811;DHT22;2419;51.276;6.472;2023-07-29T11:26:00;23.40;99.90
4811;DHT22;2419;51.276;6.472;2023-07-29T11:28:30;23.20;99.90
4811;DHT22;2419;51.276;6.472;2023-07-29T11:30:58;23.20;99.90
4811;DHT22;2419;51.276;6.472;2023-07-29T11:33:27;23.10;99.90
4811;DHT22;2419;51.276;6.472;2023-07-29T11:35:55;23.20;99.90
4811;DHT22;2419;51.276;6.472;2023-07-29T11:38:23;22.70;99.90
4811;DHT22;2419;51.276;6.472;2023-07-29T11:40:55;22.50;99.90
4811;DHT22;2419;51.276;6.472;2023-07-29T11:43:24;22.50;99.90
4811;DHT22;2419;51.276;6.472;2023-07-29T11:45:54;22.60;99.90
4811;DHT22;2419;51.276;6.472;2023-07-29T11:48:31;22.90;99.90
4811;DHT22;2419;51.276;6.472;2023-07-29T11:50:59;23.00;99.90
4811;DHT22;2419;51.276;6.472;2023-07-29T11:53:28;23.60;99.90
4811;DHT22;2419;51.276;6.472;2023-07-29T11:56:01;23.70;99.90
4811;DHT22;2419;51.276;6.472;2023-07-29T11:58:29;23.80;99.90
4811;DHT22;2419;51.276;6.472;2023-07-29T12:01:00;23.60;99.90
4811;DHT22;2419;51.276;6.472;2023-07-29T12:03:28;23.80;99.90
4811;DHT22;2419;51.276;6.472;2023-07-29T12:05:56;23.50;99.90
4811;DHT22;2419;51.276;6.472;2023-07-29T12:08:25;23.20;99.90
4811;DHT22;2419;51.276;6.472;2023-07-29T12:10:53;23.20;99.90
4811;DHT22;2419;51.276;6.472;2023-07-29T12:13:24;23.50;99.90
4811;DHT22;2419;51.276;6.472;2023-07-29T12:15:52;24.10;99.90
4811;DHT22;2419;51.276;6.472;2023-07-29T12:18:29;24.20;99.90
4811;DHT22;2419;51.276;6.472;2023-07-29T12:20:59;23.90;99.90
4811;DHT22;2419;51.276;6.472;2023-07-29T12:23:27;23.90;99.90
4811;DHT22;2419;51.276;6.472;2023-07-29T12:25:57;23.90;99.90
4811;DHT22;2419;51.276;6.472;2023-07-29T12:28:26;24.30;99.90
4811;DHT22;2419;51.276;6.472;2023-07-29T12:30:54;25.20;99.90
4811;DHT22;2419;51.276;6.472;2023-07-29T12:33:34;24.90;99.90
4811;DHT22;2419;51.276;6.472;2023-07-29T12:36:02;24.60;99.90
4811;DHT22;2419;51.276;6.472;2023-07-29T12:38:31;24.90;99.90
4811;DHT22;2419;51.276;6.472;2023-07-29T12:40:59;24.60;99.90
4811;DHT22;2419;51.276;6.472;2023-07-29T12:43:27;24.90;99.90
4811;DHT22;2419;51.276;6.472;2023-07-29T12:45:57;24.20;99.90
4811;DHT22;2419;51.276;6.472;2023-07-29T12:48:25;24.40;99.90
4811;DHT22;2419;51.276;6.472;2023-07-29T12:50:54;24.20;99.90
4811;DHT22;2419;51.276;6.472;2023-07-29T12:53:22;24.10;99.90
4811;DHT22;2419;51.276;6.472;2023-07-29T12:55:50;24.10;99.90
4811;DHT22;2419;51.276;6.472;2023-07-29T12:58:18;23.70;99.90
4811;DHT22;2419;51.276;6.472;2023-07-29T13:00:46;23.60;99.90
4811;DHT22;2419;51.276;6.472;2023-07-29T13:03:14;23.30;99.90
4811;DHT22;2419;51.276;6.472;2023-07-29T13:05:43;23.10;99.90
4811;DHT22;2419;51.276;6.472;2023-07-29T13:08:12;23.10;99.90
4811;DHT22;2419;51.276;6.472;2023-07-29T13:10:40;22.90;99.90
4811;DHT22;2419;51.276;6.472;2023-07-29T13:13:08;22.80;99.90
4811;DHT22;2419;51.276;6.472;2023-07-29T13:15:36;22.70;99.90
4811;DHT22;2419;51.276;6.472;2023-07-29T13:18:04;22.50;99.90
4811;DHT22;2419;51.276;6.472;2023-07-29T13:20:32;22.30;99.90
4811;DHT22;2419;51.276;6.472;2023-07-29T13:23:01;22.20;99.90
4811;DHT22;2419;51.276;6.472;2023-07-29T13:25:31;22.10;99.90
4811;DHT22;2419;51.276;6.472;2023-07-29T13:27:59;22.10;99.90
4811;DHT22;2419;51.276;6.472;2023-07-29T13:30:27;21.80;99.90
4811;DHT22;2419;51.276;6.472;2023-07-29T13:32:56;21.70;99.90
4811;DHT22;2419;51.276;6.472;2023-07-29T13:35:24;21.50;99.90
4811;DHT22;2419;51.276;6.472;2023-07-29T13:37:52;21.40;99.90
4811;DHT22;2419;51.276;6.472;2023-07-29T13:40:20;21.40;99.90
4811;DHT22;2419;51.276;6.472;2023-07-29T13:42:49;21.40;99.90
4811;DHT22;2419;51.276;6.472;2023-07-29T13:45:18;21.40;99.90
4811;DHT22;2419;51.276;6.472;2023-07-29T13:47:46;21.40;99.90
4811;DHT22;2419;51.276;6.472;2023-07-29T13:50:14;21.50;99.90
4811;DHT22;2419;51.276;6.472;2023-07-29T13:52:42;21.70;99.90
4811;DHT22;2419;51.276;6.472;2023-07-29T13:55:11;21.90;99.90
4811;DHT22;2419;51.276;6.472;2023-07-29T13:57:39;22.10;99.90
4811;DHT22;2419;51.276;6.472;2023-07-29T14:00:09;22.40;99.90
4811;DHT22;2419;51.276;6.472;2023-07-29T14:02:37;22.40;99.90
4811;DHT22;2419;51.276;6.472;2023-07-29T14:05:06;22.40;99.90
4811;DHT22;2419;51.276;6.472;2023-07-29T14:07:34;22.30;99.90
4811;DHT22;2419;51.276;6.472;2023-07-29T14:10:03;22.20;99.90
4811;DHT22;2419;51.276;6.472;2023-07-29T14:12:31;21.90;99.90
4811;DHT22;2419;51.276;6.472;2023-07-29T14:14:59;21.80;99.90
4811;DHT22;2419;51.276;6.472;2023-07-29T14:17:29;21.60;99.90
4811;DHT22;2419;51.276;6.472;2023-07-29T14:19:57;21.70;99.90
4811;DHT22;2419;51.276;6.472;2023-07-29T14:22:25;21.60;99.90
4811;DHT22;2419;51.276;6.472;2023-07-29T14:24:53;21.30;99.90
4811;DHT22;2419;51.276;6.472;2023-07-29T14:27:23;21.10;99.90
4811;DHT22;2419;51.276;6.472;2023-07-29T14:29:51;21.00;99.90
4811;DHT22;2419;51.276;6.472;2023-07-29T14:32:19;20.80;99.90
4811;DHT22;2419;51.276;6.472;2023-07-29T14:34:51;20.80;99.90
4811;DHT22;2419;51.276;6.472;2023-07-29T14:37:19;20.80;99.90
4811;DHT22;2419;51.276;6.472;2023-07-29T14:39:47;20.80;99.90
4811;DHT22;2419;51.276;6.472;2023-07-29T14:42:15;20.60;99.90
4811;DHT22;2419;51.276;6.472;2023-07-29T14:44:43;20.60;99.90
4811;DHT22;2419;51.276;6.472;2023-07-29T14:47:11;20.60;99.90
4811;DHT22;2419;51.276;6.472;2023-07-29T14:49:39;20.50;99.90
4811;DHT22;2419;51.276;6.472;2023-07-29T14:52:09;20.60;99.90
4811;DHT22;2419;51.276;6.472;2023-07-29T14:54:37;20.90;99.90
4811;DHT22;2419;51.276;6.472;2023-07-29T14:57:06;21.10;99.90
4811;DHT22;2419;51.276;6.472;2023-07-29T14:59:34;21.50;99.90
4811;DHT22;2419;51.276;6.472;2023-07-29T15:02:02;21.80;99.90
4811;DHT22;2419;51.276;6.472;2023-07-29T15:04:30;22.00;99.90
4811;DHT22;2419;51.276;6.472;2023-07-29T15:06:58;22.10;99.90
4811;DHT22;2419;51.276;6.472;2023-07-29T15:09:28;22.20;99.90
4811;DHT22;2419;51.276;6.472;2023-07-29T15:11:56;22.20;99.90
4811;DHT22;2419;51.276;6.472;2023-07-29T15:14:25;22.20;99.90
4811;DHT22;2419;51.276;6.472;2023-07-29T15:16:53;22.20;99.90
4811;DHT22;2419;51.276;6.472;2023-07-29T15:19:21;22.30;99.90
4811;DHT22;2419;51.276;6.472;2023-07-29T15:21:49;22.50;99.90
4811;DHT22;2419;51.276;6.472;2023-07-29T15:24:17;22.40;99.90
4811;DHT22;2419;51.276;6.472;2023-07-29T15:26:46;22.60;99.90
4811;DHT22;2419;51.276;6.472;2023-07-29T15:29:14;22.60;99.90
4811;DHT22;2419;51.276;6.472;2023-07-29T15:31:42;22.60;99.90
4811;DHT22;2419;51.276;6.472;2023-07-29T15:34:11;22.80;99.90
4811;DHT22;2419;51.276;6.472;2023-07-29T15:36:39;22.90;99.90
4811;DHT22;2419;51.276;6.472;2023-07-29T15:39:07;23.10;99.90
4811;DHT22;2419;51.276;6.472;2023-07-29T15:41:36;23.10;99.90
4811;DHT22;2419;51.276;6.472;2023-07-29T15:44:05;22.90;99.90
4811;DHT22;2419;51.276;6.472;2023-07-29T15:46:33;22.90;99.90
4811;DHT22;2419;51.276;6.472;2023-07-29T15:49:02;22.80;99.90
4811;DHT22;2419;51.276;6.472;2023-07-29T15:51:30;23.00;99.90
4811;DHT22;2419;51.276;6.472;2023-07-29T15:53:58;23.00;99.90
4811;DHT22;2419;51.276;6.472;2023-07-29T15:56:27;22.90;99.90
4811;DHT22;2419;51.276;6.472;2023-07-29T15:58:55;23.00;99.90
4811;DHT22;2419;51.276;6.472;2023-07-29T16:01:24;23.10;99.90
4811;DHT22;2419;51.276;6.472;2023-07-29T16:03:53;23.40;99.90
4811;DHT22;2419;51.276;6.472;2023-07-29T16:06:21;23.30;99.90
4811;DHT22;2419;51.276;6.472;2023-07-29T16:08:49;23.30;99.90
4811;DHT22;2419;51.276;6.472;2023-07-29T16:11:17;23.10;99.90
4811;DHT22;2419;51.276;6.472;2023-07-29T16:13:45;22.80;99.90
4811;DHT22;2419;51.276;6.472;2023-07-29T16:16:13;22.60;99.90